sensor_id;sensor_type;location;lat;lon;timestamp;temperature;humidity
83650;DHT22;73612;50.948;6.956;2024-02-23T00:01:44;7.90;99.90
83650;DHT22;73612;50.948;6.956;2024-02-23T00:04:10;7.80;99.90
83650;DHT22;73612;50.948;6.956;2024-02-23T00:06:37;7.80;99.90
83650;DHT22;73612;50.948;6.956;2024-02-23T00:09:03;7.70;99.90
83650;DHT22;73612;50.948;6.956;2024-02-23T00:11:30;7.70;99.90
83650;DHT22;73612;50.948;6.956;2024-02-23T00:13:57;7.80;99.90
83650;DHT22;73612;50.948;6.956;2024-02-23T00:16:23;7.80;99.90
83650;DHT22;73612;50.948;6.956;2024-02-23T00:18:50;7.60;99.90
83650;DHT22;73612;50.948;6.956;2024-02-23T00:21:17;7.40;99.90
83650;DHT22;73612;50.948;6.956;2024-02-23T00:23:43;7.20;99.90
83650;DHT22;73612;50.948;6.956;2024-02-23T00:26:10;7.20;99.90
83650;DHT22;73612;50.948;6.956;2024-02-23T00:28:37;7.00;99.90
83650;DHT22;73612;50.948;6.956;2024-02-23T00:31:03;6.90;99.90
83650;DHT22;73612;50.948;6.956;2024-02-23T00:33:30;6.80;99.90
83650;DHT22;73612;50.948;6.956;2024-02-23T00:35:56;6.80;99.90
83650;DHT22;73612;50.948;6.956;2024-02-23T00:38:23;6.70;99.90
83650;DHT22;73612;50.948;6.956;2024-02-23T00:40:49;6.70;99.90
83650;DHT22;73612;50.948;6.956;2024-02-23T00:43:18;6.70;99.90
83650;DHT22;73612;50.948;6.956;2024-02-23T00:45:43;6.70;99.90
83650;DHT22;73612;50.948;6.956;2024-02-23T00:48:09;6.60;99.90
83650;DHT22;73612;50.948;6.956;2024-02-23T00:50:36;6.60;99.90
83650;DHT22;73612;50.948;6.956;2024-02-23T00:53:03;6.50;99.90
83650;DHT22;73612;50.948;6.956;2024-02-23T00:55:29;6.50;99.90
83650;DHT22;73612;50.948;6.956;2024-02-23T00:57:56;6.50;99.90
83650;DHT22;73612;50.948;6.956;2024-02-23T01:00:22;6.60;99.90
83650;DHT22;73612;50.948;6.956;2024-02-23T01:02:49;6.60;99.90
83650;DHT22;73612;50.948;6.956;2024-02-23T01:05:16;6.60;99.90
83650;DHT22;73612;50.948;6.956;2024-02-23T01:07:42;6.60;99.90
83650;DHT22;73612;50.948;6.956;2024-02-23T01:10:09;6.50;99.90
83650;DHT22;73612;50.948;6.956;2024-02-23T01:12:36;6.60;99.90
83650;DHT22;73612;50.948;6.956;2024-02-23T01:15:03;6.60;99.90
83650;DHT22;73612;50.948;6.956;2024-02-23T01:17:29;6.60;99.90
83650;DHT22;73612;50.948;6.956;2024-02-23T01:19:56;6.50;99.90
83650;DHT22;73612;50.948;6.956;2024-02-23T01:22:23;6.50;99.90
83650;DHT22;73612;50.948;6.956;2024-02-23T01:24:49;6.60;99.90
83650;DHT22;73612;50.948;6.956;2024-02-23T01:27:16;6.50;99.90
83650;DHT22;73612;50.948;6.956;2024-02-23T01:29:42;6.50;99.90
83650;DHT22;73612;50.948;6.956;2024-02-23T01:32:09;6.50;99.90
83650;DHT22;73612;50.948;6.956;2024-02-23T01:34:36;6.50;99.90
83650;DHT22;73612;50.948;6.956;2024-02-23T01:37:02;6.40;99.90
83650;DHT22;73612;50.948;6.956;2024-02-23T01:39:29;6.40;99.90
83650;DHT22;73612;50.948;6.956;2024-02-23T01:41:56;6.30;99.90
83650;DHT22;73612;50.948;6.956;2024-02-23T01:44:23;6.20;99.90
83650;DHT22;73612;50.948;6.956;2024-02-23T01:46:49;6.20;99.90
83650;DHT22;73612;50.948;6.956;2024-02-23T01:49:16;6.20;99.90
83650;DHT22;73612;50.948;6.956;2024-02-23T01:51:43;6.20;99.90
83650;DHT22;73612;50.948;6.956;2024-02-23T01:54:09;6.30;99.90
83650;DHT22;73612;50.948;6.956;2024-02-23T01:56:36;6.20;99.90
83650;DHT22;73612;50.948;6.956;2024-02-23T01:59:02;6.30;99.90
83650;DHT22;73612;50.948;6.956;2024-02-23T02:01:30;6.30;99.90
83650;DHT22;73612;50.948;6.956;2024-02-23T02:03:56;6.30;99.90
83650;DHT22;73612;50.948;6.956;2024-02-23T02:06:23;6.30;99.90
83650;DHT22;73612;50.948;6.956;2024-02-23T02:08:49;6.30;99.90
83650;DHT22;73612;50.948;6.956;2024-02-23T02:11:16;6.20;99.90
83650;DHT22;73612;50.948;6.956;2024-02-23T02:13:42;6.30;99.90
83650;DHT22;73612;50.948;6.956;2024-02-23T02:16:09;6.20;99.90
83650;DHT22;73612;50.948;6.956;2024-02-23T02:18:35;6.20;99.90
83650;DHT22;73612;50.948;6.956;2024-02-23T02:21:02;6.30;99.90
83650;DHT22;73612;50.948;6.956;2024-02-23T02:23:30;6.30;99.90
83650;DHT22;73612;50.948;6.956;2024-02-23T02:25:57;6.20;99.90
83650;DHT22;73612;50.948;6.956;2024-02-23T02:28:23;6.10;99.90
83650;DHT22;73612;50.948;6.956;2024-02-23T02:30:50;6.10;99.90
83650;DHT22;73612;50.948;6.956;2024-02-23T02:33:16;6.20;99.90
83650;DHT22;73612;50.948;6.956;2024-02-23T02:35:43;6.20;99.90
83650;DHT22;73612;50.948;6.956;2024-02-23T02:38:10;6.20;99.90
83650;DHT22;73612;50.948;6.956;2024-02-23T02:40:37;6.20;99.90
83650;DHT22;73612;50.948;6.956;2024-02-23T02:43:04;6.10;99.90
83650;DHT22;73612;50.948;6.956;2024-02-23T02:45:30;6.10;99.90
83650;DHT22;73612;50.948;6.956;2024-02-23T02:47:57;6.10;99.90
83650;DHT22;73612;50.948;6.956;2024-02-23T02:50:24;6.20;99.90
83650;DHT22;73612;50.948;6.956;2024-02-23T02:52:50;6.10;99.90
83650;DHT22;73612;50.948;6.956;2024-02-23T02:55:17;6.10;99.90
83650;DHT22;73612;50.948;6.956;2024-02-23T02:57:44;6.10;99.90
83650;DHT22;73612;50.948;6.956;2024-02-23T03:00:11;6.10;99.90
83650;DHT22;73612;50.948;6.956;2024-02-23T03:02:38;6.10;99.90
83650;DHT22;73612;50.948;6.956;2024-02-23T03:05:05;6.20;99.90
83650;DHT22;73612;50.948;6.956;2024-02-23T03:07:31;6.20;99.90
83650;DHT22;73612;50.948;6.956;2024-02-23T03:09:58;6.10;99.90
83650;DHT22;73612;50.948;6.956;2024-02-23T03:12:25;6.10;99.90
83650;DHT22;73612;50.948;6.956;2024-02-23T03:14:51;6.10;99.90
83650;DHT22;73612;50.948;6.956;2024-02-23T03:17:18;6.00;99.90
83650;DHT22;73612;50.948;6.956;2024-02-23T03:19:44;6.10;99.90
83650;DHT22;73612;50.948;6.956;2024-02-23T03:22:11;6.10;99.90
83650;DHT22;73612;50.948;6.956;2024-02-23T03:24:38;6.10;99.90
83650;DHT22;73612;50.948;6.956;2024-02-23T03:27:04;6.10;99.90
83650;DHT22;73612;50.948;6.956;2024-02-23T03:29:31;6.00;99.90
83650;DHT22;73612;50.948;6.956;2024-02-23T03:31:57;6.20;99.90
83650;DHT22;73612;50.948;6.956;2024-02-23T03:34:24;6.30;99.90
83650;DHT22;73612;50.948;6.956;2024-02-23T03:36:51;6.20;99.90
83650;DHT22;73612;50.948;6.956;2024-02-23T03:39:17;6.20;99.90
83650;DHT22;73612;50.948;6.956;2024-02-23T03:41:44;6.00;99.90
83650;DHT22;73612;50.948;6.956;2024-02-23T03:44:10;6.10;99.90
83650;DHT22;73612;50.948;6.956;2024-02-23T03:46:37;6.10;99.90
83650;DHT22;73612;50.948;6.956;2024-02-23T03:49:04;6.10;99.90
83650;DHT22;73612;50.948;6.956;2024-02-23T03:51:30;6.20;99.90
83650;DHT22;73612;50.948;6.956;2024-02-23T03:53:57;6.20;99.90
83650;DHT22;73612;50.948;6.956;2024-02-23T03:56:23;6.20;99.90
83650;DHT22;73612;50.948;6.956;2024-02-23T03:58:50;6.20;99.90
83650;DHT22;73612;50.948;6.956;2024-02-23T04:01:17;6.20;99.90
83650;DHT22;73612;50.948;6.956;2024-02-23T04:03:43;6.20;99.90
83650;DHT22;73612;50.948;6.956;2024-02-23T04:06:10;6.30;99.90
83650;DHT22;73612;50.948;6.956;2024-02-23T04:08:36;6.30;99.90
83650;DHT22;73612;50.948;6.956;2024-02-23T04:11:03;6.40;99.90
83650;DHT22;73612;50.948;6.956;2024-02-23T04:13:30;6.40;99.90
83650;DHT22;73612;50.948;6.956;2024-02-23T04:15:56;6.40;99.90
83650;DHT22;73612;50.948;6.956;2024-02-23T04:18:23;6.30;99.90
83650;DHT22;73612;50.948;6.956;2024-02-23T04:20:49;6.40;99.90
83650;DHT22;73612;50.948;6.956;2024-02-23T04:23:16;6.30;99.90
83650;DHT22;73612;50.948;6.956;2024-02-23T04:25:43;6.30;99.90
83650;DHT22;73612;50.948;6.956;2024-02-23T04:28:09;6.30;99.90
83650;DHT22;73612;50.948;6.956;2024-02-23T04:30:36;6.40;99.90
83650;DHT22;73612;50.948;6.956;2024-02-23T04:33:02;6.40;99.90
83650;DHT22;73612;50.948;6.956;2024-02-23T04:35:29;6.40;99.90
83650;DHT22;73612;50.948;6.956;2024-02-23T04:37:56;6.40;99.90
83650;DHT22;73612;50.948;6.956;2024-02-23T04:40:22;6.30;99.90
83650;DHT22;73612;50.948;6.956;2024-02-23T04:42:49;6.30;99.90
83650;DHT22;73612;50.948;6.956;2024-02-23T04:45:15;6.30;99.90
83650;DHT22;73612;50.948;6.956;2024-02-23T04:47:42;6.20;99.90
83650;DHT22;73612;50.948;6.956;2024-02-23T04:50:09;6.20;99.90
83650;DHT22;73612;50.948;6.956;2024-02-23T04:52:36;6.10;99.90
83650;DHT22;73612;50.948;6.956;2024-02-23T04:55:02;6.10;99.90
83650;DHT22;73612;50.948;6.956;2024-02-23T04:57:29;6.10;99.90
83650;DHT22;73612;50.948;6.956;2024-02-23T04:59:55;6.20;99.90
83650;DHT22;73612;50.948;6.956;2024-02-23T05:02:22;6.10;99.90
83650;DHT22;73612;50.948;6.956;2024-02-23T05:04:49;6.10;99.90
83650;DHT22;73612;50.948;6.956;2024-02-23T05:07:15;6.10;99.90
83650;DHT22;73612;50.948;6.956;2024-02-23T05:09:42;6.10;99.90
83650;DHT22;73612;50.948;6.956;2024-02-23T05:12:09;6.10;99.90
83650;DHT22;73612;50.948;6.956;2024-02-23T05:14:35;6.10;99.90
83650;DHT22;73612;50.948;6.956;2024-02-23T05:17:02;6.10;99.90
83650;DHT22;73612;50.948;6.956;2024-02-23T05:19:29;6.00;99.90
83650;DHT22;73612;50.948;6.956;2024-02-23T05:21:55;5.80;99.90
83650;DHT22;73612;50.948;6.956;2024-02-23T05:24:22;5.80;99.90
83650;DHT22;73612;50.948;6.956;2024-02-23T05:26:48;5.80;99.90
83650;DHT22;73612;50.948;6.956;2024-02-23T05:29:15;6.00;99.90
83650;DHT22;73612;50.948;6.956;2024-02-23T05:31:46;6.00;99.90
83650;DHT22;73612;50.948;6.956;2024-02-23T05:34:12;5.90;99.90
83650;DHT22;73612;50.948;6.956;2024-02-23T05:36:39;6.00;99.90
83650;DHT22;73612;50.948;6.956;2024-02-23T05:39:05;5.90;99.90
83650;DHT22;73612;50.948;6.956;2024-02-23T05:41:33;5.70;99.90
83650;DHT22;73612;50.948;6.956;2024-02-23T05:43:59;5.50;99.90
83650;DHT22;73612;50.948;6.956;2024-02-23T05:46:26;5.40;99.90
83650;DHT22;73612;50.948;6.956;2024-02-23T05:48:52;5.60;99.90
83650;DHT22;73612;50.948;6.956;2024-02-23T05:51:19;5.60;99.90
83650;DHT22;73612;50.948;6.956;2024-02-23T05:53:45;5.50;99.90
83650;DHT22;73612;50.948;6.956;2024-02-23T05:56:12;5.30;99.90
83650;DHT22;73612;50.948;6.956;2024-02-23T05:58:39;5.20;99.90
83650;DHT22;73612;50.948;6.956;2024-02-23T06:01:05;5.20;99.90
83650;DHT22;73612;50.948;6.956;2024-02-23T06:03:32;5.30;99.90
83650;DHT22;73612;50.948;6.956;2024-02-23T06:05:58;5.30;99.90
83650;DHT22;73612;50.948;6.956;2024-02-23T06:08:25;5.30;99.90
83650;DHT22;73612;50.948;6.956;2024-02-23T06:10:52;5.20;99.90
83650;DHT22;73612;50.948;6.956;2024-02-23T06:13:18;5.20;99.90
83650;DHT22;73612;50.948;6.956;2024-02-23T06:15:45;5.40;99.90
83650;DHT22;73612;50.948;6.956;2024-02-23T06:18:12;5.50;99.90
83650;DHT22;73612;50.948;6.956;2024-02-23T06:20:38;5.70;99.90
83650;DHT22;73612;50.948;6.956;2024-02-23T06:23:05;5.80;99.90
83650;DHT22;73612;50.948;6.956;2024-02-23T06:25:32;5.90;99.90
83650;DHT22;73612;50.948;6.956;2024-02-23T06:27:58;5.90;99.90
83650;DHT22;73612;50.948;6.956;2024-02-23T06:30:25;5.80;99.90
83650;DHT22;73612;50.948;6.956;2024-02-23T06:32:51;5.80;99.90
83650;DHT22;73612;50.948;6.956;2024-02-23T06:35:18;5.70;99.90
83650;DHT22;73612;50.948;6.956;2024-02-23T06:37:45;5.80;99.90
83650;DHT22;73612;50.948;6.956;2024-02-23T06:40:11;5.90;99.90
83650;DHT22;73612;50.948;6.956;2024-02-23T06:42:38;6.00;99.90
83650;DHT22;73612;50.948;6.956;2024-02-23T06:45:05;6.00;99.90
83650;DHT22;73612;50.948;6.956;2024-02-23T06:47:38;6.10;99.90
83650;DHT22;73612;50.948;6.956;2024-02-23T06:50:10;6.00;99.90
83650;DHT22;73612;50.948;6.956;2024-02-23T06:52:40;5.90;99.90
83650;DHT22;73612;50.948;6.956;2024-02-23T06:55:08;5.80;99.90
83650;DHT22;73612;50.948;6.956;2024-02-23T06:57:35;5.80;99.90
83650;DHT22;73612;50.948;6.956;2024-02-23T07:00:02;5.80;99.90
83650;DHT22;73612;50.948;6.956;2024-02-23T07:02:28;5.90;99.90
83650;DHT22;73612;50.948;6.956;2024-02-23T07:04:55;5.90;99.90
83650;DHT22;73612;50.948;6.956;2024-02-23T07:07:22;5.90;99.90
83650;DHT22;73612;50.948;6.956;2024-02-23T07:09:48;5.80;99.90
83650;DHT22;73612;50.948;6.956;2024-02-23T07:12:15;5.80;99.90
83650;DHT22;73612;50.948;6.956;2024-02-23T07:14:41;5.80;99.90
83650;DHT22;73612;50.948;6.956;2024-02-23T07:17:08;5.90;99.90
83650;DHT22;73612;50.948;6.956;2024-02-23T07:19:35;6.00;99.90
83650;DHT22;73612;50.948;6.956;2024-02-23T07:22:01;6.10;99.90
83650;DHT22;73612;50.948;6.956;2024-02-23T07:24:29;6.20;99.90
83650;DHT22;73612;50.948;6.956;2024-02-23T07:26:56;6.30;99.90
83650;DHT22;73612;50.948;6.956;2024-02-23T07:29:22;6.40;99.90
83650;DHT22;73612;50.948;6.956;2024-02-23T07:31:49;6.50;99.90
83650;DHT22;73612;50.948;6.956;2024-02-23T07:34:15;6.50;99.90
83650;DHT22;73612;50.948;6.956;2024-02-23T07:36:42;6.60;99.90
83650;DHT22;73612;50.948;6.956;2024-02-23T07:39:09;6.60;99.90
83650;DHT22;73612;50.948;6.956;2024-02-23T07:44:02;6.60;99.90
83650;DHT22;73612;50.948;6.956;2024-02-23T07:46:29;6.60;99.90
83650;DHT22;73612;50.948;6.956;2024-02-23T07:48:56;6.60;99.90
83650;DHT22;73612;50.948;6.956;2024-02-23T07:51:22;6.60;99.90
83650;DHT22;73612;50.948;6.956;2024-02-23T07:53:49;6.70;99.90
83650;DHT22;73612;50.948;6.956;2024-02-23T07:56:16;6.80;99.90
83650;DHT22;73612;50.948;6.956;2024-02-23T07:58:43;6.80;99.90
83650;DHT22;73612;50.948;6.956;2024-02-23T08:01:10;6.80;99.90
83650;DHT22;73612;50.948;6.956;2024-02-23T08:03:36;6.80;99.90
83650;DHT22;73612;50.948;6.956;2024-02-23T08:06:03;6.80;99.90
83650;DHT22;73612;50.948;6.956;2024-02-23T08:08:30;6.90;99.90
83650;DHT22;73612;50.948;6.956;2024-02-23T08:10:57;7.00;99.90
83650;DHT22;73612;50.948;6.956;2024-02-23T08:13:24;7.00;99.90
83650;DHT22;73612;50.948;6.956;2024-02-23T08:15:50;7.10;99.90
83650;DHT22;73612;50.948;6.956;2024-02-23T08:18:17;7.20;99.90
83650;DHT22;73612;50.948;6.956;2024-02-23T08:20:44;7.20;99.90
83650;DHT22;73612;50.948;6.956;2024-02-23T08:23:10;7.30;99.90
83650;DHT22;73612;50.948;6.956;2024-02-23T08:25:37;7.30;99.90
83650;DHT22;73612;50.948;6.956;2024-02-23T08:28:04;7.40;99.90
83650;DHT22;73612;50.948;6.956;2024-02-23T08:30:30;7.60;99.90
83650;DHT22;73612;50.948;6.956;2024-02-23T08:32:57;7.80;99.90
83650;DHT22;73612;50.948;6.956;2024-02-23T08:35:24;7.70;99.90
83650;DHT22;73612;50.948;6.956;2024-02-23T08:37:51;7.70;99.90
83650;DHT22;73612;50.948;6.956;2024-02-23T08:40:17;7.70;99.90
83650;DHT22;73612;50.948;6.956;2024-02-23T08:42:44;7.60;99.90
83650;DHT22;73612;50.948;6.956;2024-02-23T08:45:11;7.70;99.90
83650;DHT22;73612;50.948;6.956;2024-02-23T08:47:37;7.90;99.90
83650;DHT22;73612;50.948;6.956;2024-02-23T08:50:05;8.00;99.60
83650;DHT22;73612;50.948;6.956;2024-02-23T08:52:31;8.20;99.00
83650;DHT22;73612;50.948;6.956;2024-02-23T08:54:58;8.30;98.60
83650;DHT22;73612;50.948;6.956;2024-02-23T08:57:25;8.30;98.70
83650;DHT22;73612;50.948;6.956;2024-02-23T08:59:51;8.20;98.40
83650;DHT22;73612;50.948;6.956;2024-02-23T09:02:18;8.20;99.00
83650;DHT22;73612;50.948;6.956;2024-02-23T09:04:45;8.20;99.00
83650;DHT22;73612;50.948;6.956;2024-02-23T09:07:12;8.10;99.40
83650;DHT22;73612;50.948;6.956;2024-02-23T09:09:39;8.10;99.40
83650;DHT22;73612;50.948;6.956;2024-02-23T09:12:06;8.20;99.90
83650;DHT22;73612;50.948;6.956;2024-02-23T09:14:33;8.20;99.10
83650;DHT22;73612;50.948;6.956;2024-02-23T09:17:01;8.40;99.10
83650;DHT22;73612;50.948;6.956;2024-02-23T09:19:27;8.30;98.90
83650;DHT22;73612;50.948;6.956;2024-02-23T09:21:54;8.40;98.70
83650;DHT22;73612;50.948;6.956;2024-02-23T09:24:21;8.40;98.80
83650;DHT22;73612;50.948;6.956;2024-02-23T09:26:48;8.50;98.90
83650;DHT22;73612;50.948;6.956;2024-02-23T09:29:14;8.50;99.50
83650;DHT22;73612;50.948;6.956;2024-02-23T09:31:41;8.60;99.90
83650;DHT22;73612;50.948;6.956;2024-02-23T09:34:07;8.70;98.50
83650;DHT22;73612;50.948;6.956;2024-02-23T09:36:34;8.70;98.30
83650;DHT22;73612;50.948;6.956;2024-02-23T09:39:01;8.60;98.50
83650;DHT22;73612;50.948;6.956;2024-02-23T09:41:28;8.80;98.50
83650;DHT22;73612;50.948;6.956;2024-02-23T09:43:55;9.20;97.70
83650;DHT22;73612;50.948;6.956;2024-02-23T09:46:21;9.20;95.70
83650;DHT22;73612;50.948;6.956;2024-02-23T09:48:48;9.20;96.30
83650;DHT22;73612;50.948;6.956;2024-02-23T09:51:15;9.40;96.00
83650;DHT22;73612;50.948;6.956;2024-02-23T09:53:42;9.40;95.20
83650;DHT22;73612;50.948;6.956;2024-02-23T09:56:09;9.40;95.10
83650;DHT22;73612;50.948;6.956;2024-02-23T09:58:36;9.40;96.80
83650;DHT22;73612;50.948;6.956;2024-02-23T10:01:03;9.50;95.00
83650;DHT22;73612;50.948;6.956;2024-02-23T10:03:29;9.60;95.60
83650;DHT22;73612;50.948;6.956;2024-02-23T10:05:58;9.50;94.50
83650;DHT22;73612;50.948;6.956;2024-02-23T10:08:24;9.30;94.90
83650;DHT22;73612;50.948;6.956;2024-02-23T10:10:51;9.20;94.60
83650;DHT22;73612;50.948;6.956;2024-02-23T10:13:18;9.30;94.40
83650;DHT22;73612;50.948;6.956;2024-02-23T10:15:44;9.40;94.40
83650;DHT22;73612;50.948;6.956;2024-02-23T10:18:11;9.50;94.60
83650;DHT22;73612;50.948;6.956;2024-02-23T10:20:37;9.60;94.30
83650;DHT22;73612;50.948;6.956;2024-02-23T10:23:04;9.80;93.40
83650;DHT22;73612;50.948;6.956;2024-02-23T10:25:34;9.80;94.20
83650;DHT22;73612;50.948;6.956;2024-02-23T10:28:01;9.70;93.80
83650;DHT22;73612;50.948;6.956;2024-02-23T10:30:27;10.10;94.20
83650;DHT22;73612;50.948;6.956;2024-02-23T10:32:55;10.00;92.30
83650;DHT22;73612;50.948;6.956;2024-02-23T10:35:22;10.00;94.60
83650;DHT22;73612;50.948;6.956;2024-02-23T10:37:49;10.00;94.20
83650;DHT22;73612;50.948;6.956;2024-02-23T10:40:19;9.70;93.80
83650;DHT22;73612;50.948;6.956;2024-02-23T10:42:45;9.70;94.50
83650;DHT22;73612;50.948;6.956;2024-02-23T10:45:15;9.60;94.40
83650;DHT22;73612;50.948;6.956;2024-02-23T10:47:41;9.90;94.50
83650;DHT22;73612;50.948;6.956;2024-02-23T10:50:08;9.70;94.00
83650;DHT22;73612;50.948;6.956;2024-02-23T10:52:35;9.80;94.50
83650;DHT22;73612;50.948;6.956;2024-02-23T10:55:01;9.80;93.80
83650;DHT22;73612;50.948;6.956;2024-02-23T10:57:28;10.10;93.10
83650;DHT22;73612;50.948;6.956;2024-02-23T10:59:55;10.00;94.60
83650;DHT22;73612;50.948;6.956;2024-02-23T11:02:22;9.60;96.20
83650;DHT22;73612;50.948;6.956;2024-02-23T11:04:48;9.60;96.40
83650;DHT22;73612;50.948;6.956;2024-02-23T11:07:17;9.90;96.40
83650;DHT22;73612;50.948;6.956;2024-02-23T11:09:42;10.10;94.30
83650;DHT22;73612;50.948;6.956;2024-02-23T11:12:09;10.10;93.10
83650;DHT22;73612;50.948;6.956;2024-02-23T11:14:36;9.80;94.80
83650;DHT22;73612;50.948;6.956;2024-02-23T11:17:02;9.80;94.50
83650;DHT22;73612;50.948;6.956;2024-02-23T11:19:35;9.70;94.90
83650;DHT22;73612;50.948;6.956;2024-02-23T11:22:02;9.90;95.50
83650;DHT22;73612;50.948;6.956;2024-02-23T11:24:28;9.90;94.50
83650;DHT22;73612;50.948;6.956;2024-02-23T11:26:58;9.80;95.70
83650;DHT22;73612;50.948;6.956;2024-02-23T11:29:27;9.70;95.10
83650;DHT22;73612;50.948;6.956;2024-02-23T11:31:53;9.90;95.50
83650;DHT22;73612;50.948;6.956;2024-02-23T11:34:22;10.00;93.80
83650;DHT22;73612;50.948;6.956;2024-02-23T11:36:50;10.60;92.80
83650;DHT22;73612;50.948;6.956;2024-02-23T11:39:17;10.40;92.20
83650;DHT22;73612;50.948;6.956;2024-02-23T11:41:43;10.00;92.30
83650;DHT22;73612;50.948;6.956;2024-02-23T11:44:11;10.00;92.40
83650;DHT22;73612;50.948;6.956;2024-02-23T11:46:37;10.00;92.40
83650;DHT22;73612;50.948;6.956;2024-02-23T11:49:04;10.10;91.90
83650;DHT22;73612;50.948;6.956;2024-02-23T11:51:31;10.20;91.80
83650;DHT22;73612;50.948;6.956;2024-02-23T11:53:57;10.20;91.50
83650;DHT22;73612;50.948;6.956;2024-02-23T11:56:24;10.30;91.60
83650;DHT22;73612;50.948;6.956;2024-02-23T11:58:50;10.50;92.30
83650;DHT22;73612;50.948;6.956;2024-02-23T12:01:17;10.50;91.30
83650;DHT22;73612;50.948;6.956;2024-02-23T12:03:44;10.20;91.20
83650;DHT22;73612;50.948;6.956;2024-02-23T12:06:10;10.10;91.40
83650;DHT22;73612;50.948;6.956;2024-02-23T12:08:37;10.20;92.30
83650;DHT22;73612;50.948;6.956;2024-02-23T12:11:05;10.20;91.80
83650;DHT22;73612;50.948;6.956;2024-02-23T12:13:32;10.10;91.00
83650;DHT22;73612;50.948;6.956;2024-02-23T12:15:58;10.00;91.50
83650;DHT22;73612;50.948;6.956;2024-02-23T12:18:25;10.10;92.20
83650;DHT22;73612;50.948;6.956;2024-02-23T12:20:52;10.40;91.90
83650;DHT22;73612;50.948;6.956;2024-02-23T12:23:19;10.40;91.10
83650;DHT22;73612;50.948;6.956;2024-02-23T12:25:52;10.20;91.40
83650;DHT22;73612;50.948;6.956;2024-02-23T12:28:18;10.40;92.30
83650;DHT22;73612;50.948;6.956;2024-02-23T12:30:45;10.40;92.30
83650;DHT22;73612;50.948;6.956;2024-02-23T12:33:11;10.40;91.70
83650;DHT22;73612;50.948;6.956;2024-02-23T12:35:38;10.40;91.70
83650;DHT22;73612;50.948;6.956;2024-02-23T12:38:04;10.20;91.90
83650;DHT22;73612;50.948;6.956;2024-02-23T12:40:31;10.20;92.70
83650;DHT22;73612;50.948;6.956;2024-02-23T12:42:58;10.20;92.50
83650;DHT22;73612;50.948;6.956;2024-02-23T12:45:24;10.30;92.40
83650;DHT22;73612;50.948;6.956;2024-02-23T12:47:51;10.50;91.70
83650;DHT22;73612;50.948;6.956;2024-02-23T12:50:18;10.80;91.60
83650;DHT22;73612;50.948;6.956;2024-02-23T12:52:45;11.50;88.40
83650;DHT22;73612;50.948;6.956;2024-02-23T12:55:12;11.50;87.40
83650;DHT22;73612;50.948;6.956;2024-02-23T12:57:38;10.80;89.60
83650;DHT22;73612;50.948;6.956;2024-02-23T13:00:06;10.40;90.20
83650;DHT22;73612;50.948;6.956;2024-02-23T13:02:33;10.30;91.00
83650;DHT22;73612;50.948;6.956;2024-02-23T13:04:59;10.60;90.90
83650;DHT22;73612;50.948;6.956;2024-02-23T13:07:26;10.60;90.10
83650;DHT22;73612;50.948;6.956;2024-02-23T13:09:52;10.60;90.90
83650;DHT22;73612;50.948;6.956;2024-02-23T13:12:19;10.50;90.00
83650;DHT22;73612;50.948;6.956;2024-02-23T13:14:46;10.50;90.30
83650;DHT22;73612;50.948;6.956;2024-02-23T13:17:12;10.90;90.30
83650;DHT22;73612;50.948;6.956;2024-02-23T13:19:39;10.70;90.20
83650;DHT22;73612;50.948;6.956;2024-02-23T13:22:06;10.50;90.80
83650;DHT22;73612;50.948;6.956;2024-02-23T13:24:32;10.50;91.20
83650;DHT22;73612;50.948;6.956;2024-02-23T13:26:59;10.40;91.30
83650;DHT22;73612;50.948;6.956;2024-02-23T13:29:26;10.50;91.20
83650;DHT22;73612;50.948;6.956;2024-02-23T13:31:52;12.60;85.70
83650;DHT22;73612;50.948;6.956;2024-02-23T13:34:19;14.40;64.60
83650;DHT22;73612;50.948;6.956;2024-02-23T13:36:46;14.20;58.10
83650;DHT22;73612;50.948;6.956;2024-02-23T13:39:12;13.10;66.60
83650;DHT22;73612;50.948;6.956;2024-02-23T13:41:39;12.20;77.00
83650;DHT22;73612;50.948;6.956;2024-02-23T13:44:05;12.10;79.10
83650;DHT22;73612;50.948;6.956;2024-02-23T13:46:35;11.60;82.30
83650;DHT22;73612;50.948;6.956;2024-02-23T13:49:04;11.20;85.30
83650;DHT22;73612;50.948;6.956;2024-02-23T13:51:31;11.10;88.10
83650;DHT22;73612;50.948;6.956;2024-02-23T13:53:57;10.90;85.20
83650;DHT22;73612;50.948;6.956;2024-02-23T13:56:24;10.90;85.40
83650;DHT22;73612;50.948;6.956;2024-02-23T13:58:52;11.30;83.30
83650;DHT22;73612;50.948;6.956;2024-02-23T14:01:18;11.30;82.90
83650;DHT22;73612;50.948;6.956;2024-02-23T14:03:45;11.40;83.30
83650;DHT22;73612;50.948;6.956;2024-02-23T14:06:11;10.90;85.50
83650;DHT22;73612;50.948;6.956;2024-02-23T14:08:38;11.00;89.20
83650;DHT22;73612;50.948;6.956;2024-02-23T14:11:05;10.90;90.20
83650;DHT22;73612;50.948;6.956;2024-02-23T14:13:32;10.90;90.70
83650;DHT22;73612;50.948;6.956;2024-02-23T14:15:58;11.00;90.70
83650;DHT22;73612;50.948;6.956;2024-02-23T14:18:25;11.00;90.50
83650;DHT22;73612;50.948;6.956;2024-02-23T14:20:51;11.10;89.50
83650;DHT22;73612;50.948;6.956;2024-02-23T14:23:19;12.20;82.70
83650;DHT22;73612;50.948;6.956;2024-02-23T14:25:45;12.00;79.80
83650;DHT22;73612;50.948;6.956;2024-02-23T14:28:12;12.10;79.40
83650;DHT22;73612;50.948;6.956;2024-02-23T14:30:39;12.00;82.90
83650;DHT22;73612;50.948;6.956;2024-02-23T14:33:06;12.50;77.10
83650;DHT22;73612;50.948;6.956;2024-02-23T14:35:33;12.00;78.80
83650;DHT22;73612;50.948;6.956;2024-02-23T14:38:00;11.40;82.80
83650;DHT22;73612;50.948;6.956;2024-02-23T14:40:26;11.00;87.40
83650;DHT22;73612;50.948;6.956;2024-02-23T14:42:53;10.60;90.80
83650;DHT22;73612;50.948;6.956;2024-02-23T14:45:20;10.50;91.70
83650;DHT22;73612;50.948;6.956;2024-02-23T14:47:47;10.30;92.30
83650;DHT22;73612;50.948;6.956;2024-02-23T14:50:14;10.30;92.10
83650;DHT22;73612;50.948;6.956;2024-02-23T14:52:40;10.30;92.40
83650;DHT22;73612;50.948;6.956;2024-02-23T14:55:07;10.40;92.90
83650;DHT22;73612;50.948;6.956;2024-02-23T14:57:34;10.40;92.30
83650;DHT22;73612;50.948;6.956;2024-02-23T15:00:00;10.30;92.40
83650;DHT22;73612;50.948;6.956;2024-02-23T15:02:27;10.20;91.70
83650;DHT22;73612;50.948;6.956;2024-02-23T15:04:53;10.20;92.00
83650;DHT22;73612;50.948;6.956;2024-02-23T15:07:20;10.10;91.60
83650;DHT22;73612;50.948;6.956;2024-02-23T15:09:46;10.10;92.10
83650;DHT22;73612;50.948;6.956;2024-02-23T15:12:13;10.10;92.80
83650;DHT22;73612;50.948;6.956;2024-02-23T15:14:40;10.00;93.50
83650;DHT22;73612;50.948;6.956;2024-02-23T15:17:07;9.90;94.80
83650;DHT22;73612;50.948;6.956;2024-02-23T15:19:33;9.80;95.40
83650;DHT22;73612;50.948;6.956;2024-02-23T15:22:00;9.70;95.70
83650;DHT22;73612;50.948;6.956;2024-02-23T15:24:27;9.70;96.30
83650;DHT22;73612;50.948;6.956;2024-02-23T15:26:53;9.70;96.20
83650;DHT22;73612;50.948;6.956;2024-02-23T15:29:20;9.70;96.50
83650;DHT22;73612;50.948;6.956;2024-02-23T15:31:46;9.70;96.60
83650;DHT22;73612;50.948;6.956;2024-02-23T15:34:13;9.80;96.50
83650;DHT22;73612;50.948;6.956;2024-02-23T15:36:40;9.80;96.70
83650;DHT22;73612;50.948;6.956;2024-02-23T15:39:07;9.90;97.30
83650;DHT22;73612;50.948;6.956;2024-02-23T15:41:34;9.90;97.30